sensor_id;sensor_type;location;lat;lon;timestamp;pressure;altitude;pressure_sealevel;temperature
15701;BMP180;7950;42.744;23.174;2022-08-20T00:38:42;94038.00;;;20.11
15701;BMP180;7950;42.744;23.174;2022-08-20T00:41:18;94037.69;;;19.95
15701;BMP180;7950;42.744;23.174;2022-08-20T00:48:29;94023.28;;;19.96
15701;BMP180;7950;42.744;23.174;2022-08-20T01:00:23;94024.13;;;19.63
15701;BMP180;7950;42.744;23.174;2022-08-20T01:11:51;94017.25;;;19.70
15701;BMP180;7950;42.744;23.174;2022-08-20T01:24:21;94012.56;;;19.67
15701;BMP180;7950;42.744;23.174;2022-08-20T01:49:46;94005.22;;;19.39
15701;BMP180;7950;42.744;23.174;2022-08-20T02:06:01;93994.72;;;19.17
15701;BMP180;7950;42.744;23.174;2022-08-20T02:18:24;93982.34;;;19.21
15701;BMP180;7950;42.744;23.174;2022-08-20T02:20:52;93975.66;;;19.23
15701;BMP180;7950;42.744;23.174;2022-08-20T02:27:55;93979.56;;;19.26
15701;BMP180;7950;42.744;23.174;2022-08-20T02:35:10;93991.63;;;19.40
15701;BMP180;7950;42.744;23.174;2022-08-20T02:42:16;93999.88;;;19.22
15701;BMP180;7950;42.744;23.174;2022-08-20T02:54:07;93995.66;;;19.21
15701;BMP180;7950;42.744;23.174;2022-08-20T03:01:12;93998.97;;;19.26
15701;BMP180;7950;42.744;23.174;2022-08-20T03:03:42;93995.06;;;19.24
15701;BMP180;7950;42.744;23.174;2022-08-20T03:15:22;93991.75;;;19.27
15701;BMP180;7950;42.744;23.174;2022-08-20T03:22:35;94006.44;;;19.16
15701;BMP180;7950;42.744;23.174;2022-08-20T03:25:06;94001.28;;;19.11
15701;BMP180;7950;42.744;23.174;2022-08-20T03:27:34;94007.56;;;19.15
15701;BMP180;7950;42.744;23.174;2022-08-20T03:30:06;94007.38;;;19.03
15701;BMP180;7950;42.744;23.174;2022-08-20T03:32:37;94005.97;;;19.14
15701;BMP180;7950;42.744;23.174;2022-08-20T03:44:32;94023.94;;;18.91
15701;BMP180;7950;42.744;23.174;2022-08-20T03:51:47;94022.19;;;18.87
15701;BMP180;7950;42.744;23.174;2022-08-20T04:03:39;94029.22;;;18.83
15701;BMP180;7950;42.744;23.174;2022-08-20T04:10:59;94020.66;;;19.03
15701;BMP180;7950;42.744;23.174;2022-08-20T04:36:23;94036.03;;;19.57
15701;BMP180;7950;42.744;23.174;2022-08-20T04:38:54;94042.13;;;19.74
15701;BMP180;7950;42.744;23.174;2022-08-20T04:46:04;94041.31;;;19.91
15701;BMP180;7950;42.744;23.174;2022-08-20T05:12:14;94033.09;;;21.25
15701;BMP180;7950;42.744;23.174;2022-08-20T05:29:05;94025.47;;;22.09
15701;BMP180;7950;42.744;23.174;2022-08-20T05:41:14;94034.59;;;22.89
15701;BMP180;7950;42.744;23.174;2022-08-20T05:48:33;94027.84;;;23.43
15701;BMP180;7950;42.744;23.174;2022-08-20T05:55:33;94017.22;;;23.86
15701;BMP180;7950;42.744;23.174;2022-08-20T06:02:33;94011.97;;;24.17
15701;BMP180;7950;42.744;23.174;2022-08-20T06:09:47;94019.97;;;24.60
15701;BMP180;7950;42.744;23.174;2022-08-20T07:03:05;93983.44;;;26.35
15701;BMP180;7950;42.744;23.174;2022-08-20T07:05:38;93980.56;;;26.47
15701;BMP180;7950;42.744;23.174;2022-08-20T07:12:40;93981.78;;;26.72
15701;BMP180;7950;42.744;23.174;2022-08-20T07:28:53;93967.53;;;27.50
15701;BMP180;7950;42.744;23.174;2022-08-20T07:36:18;93968.06;;;27.62
15701;BMP180;7950;42.744;23.174;2022-08-20T07:38:46;93964.78;;;27.76
15701;BMP180;7950;42.744;23.174;2022-08-20T07:45:50;93963.38;;;27.85
15701;BMP180;7950;42.744;23.174;2022-08-20T07:48:21;93965.41;;;27.95
15701;BMP180;7950;42.744;23.174;2022-08-20T07:55:10;93976.53;;;28.27
15701;BMP180;7950;42.744;23.174;2022-08-20T08:02:11;93961.91;;;28.31
15701;BMP180;7950;42.744;23.174;2022-08-20T08:04:40;93959.81;;;28.51
15701;BMP180;7950;42.744;23.174;2022-08-20T08:11:44;93959.28;;;28.82
15701;BMP180;7950;42.744;23.174;2022-08-20T08:28:19;93943.25;;;29.68
15701;BMP180;7950;42.744;23.174;2022-08-20T08:39:54;93923.97;;;29.80
15701;BMP180;7950;42.744;23.174;2022-08-20T08:47:16;93925.56;;;30.09
15701;BMP180;7950;42.744;23.174;2022-08-20T08:58:41;93904.38;;;31.02
15701;BMP180;7950;42.744;23.174;2022-08-20T09:06:03;93903.59;;;31.26
15701;BMP180;7950;42.744;23.174;2022-08-20T09:13:21;93908.84;;;31.64
15701;BMP180;7950;42.744;23.174;2022-08-20T09:25:00;93891.34;;;31.86
15701;BMP180;7950;42.744;23.174;2022-08-20T09:31:26;93888.00;;;31.54
15701;BMP180;7950;42.744;23.174;2022-08-20T09:38:26;93887.00;;;31.99
15701;BMP180;7950;42.744;23.174;2022-08-20T09:40:56;93881.94;;;32.05
15701;BMP180;7950;42.744;23.174;2022-08-20T09:52:49;93876.91;;;32.00
15701;BMP180;7950;42.744;23.174;2022-08-20T09:55:25;93878.47;;;32.01
15701;BMP180;7950;42.744;23.174;2022-08-20T09:57:57;93876.53;;;31.98
15701;BMP180;7950;42.744;23.174;2022-08-20T10:05:04;93880.91;;;31.74
15701;BMP180;7950;42.744;23.174;2022-08-20T10:07:37;93866.97;;;31.83
15701;BMP180;7950;42.744;23.174;2022-08-20T10:10:10;93865.34;;;31.92
15701;BMP180;7950;42.744;23.174;2022-08-20T10:17:18;93861.69;;;32.71
15701;BMP180;7950;42.744;23.174;2022-08-20T10:24:39;93851.56;;;33.12
15701;BMP180;7950;42.744;23.174;2022-08-20T10:41:17;93848.75;;;33.19
15701;BMP180;7950;42.744;23.174;2022-08-20T10:43:46;93844.13;;;33.53
15701;BMP180;7950;42.744;23.174;2022-08-20T10:46:15;93842.13;;;33.87
15701;BMP180;7950;42.744;23.174;2022-08-20T10:48:44;93839.53;;;34.06
15701;BMP180;7950;42.744;23.174;2022-08-20T10:55:57;93821.25;;;33.80
15701;BMP180;7950;42.744;23.174;2022-08-20T10:58:27;93831.97;;;33.91
15701;BMP180;7950;42.744;23.174;2022-08-20T11:01:06;93823.03;;;33.90
15701;BMP180;7950;42.744;23.174;2022-08-20T11:03:35;93821.59;;;33.82
15701;BMP180;7950;42.744;23.174;2022-08-20T11:10:35;93818.44;;;33.54
15701;BMP180;7950;42.744;23.174;2022-08-20T11:17:44;93799.03;;;33.22
15701;BMP180;7950;42.744;23.174;2022-08-20T11:24:57;93785.88;;;33.50
15701;BMP180;7950;42.744;23.174;2022-08-20T11:36:29;93754.06;;;33.47
15701;BMP180;7950;42.744;23.174;2022-08-20T11:52:47;93758.72;;;32.43
15701;BMP180;7950;42.744;23.174;2022-08-20T11:55:16;93752.31;;;32.23
15701;BMP180;7950;42.744;23.174;2022-08-20T11:57:46;93757.56;;;31.96
15701;BMP180;7950;42.744;23.174;2022-08-20T12:09:23;93774.19;;;31.37
15701;BMP180;7950;42.744;23.174;2022-08-20T12:11:51;93771.94;;;31.28
15701;BMP180;7950;42.744;23.174;2022-08-20T12:14:20;93773.84;;;31.35
15701;BMP180;7950;42.744;23.174;2022-08-20T12:16:48;93780.06;;;31.28
15701;BMP180;7950;42.744;23.174;2022-08-20T12:19:17;93777.78;;;31.23
15701;BMP180;7950;42.744;23.174;2022-08-20T12:31:13;93761.13;;;31.18
15701;BMP180;7950;42.744;23.174;2022-08-20T12:33:41;93760.34;;;31.21
15701;BMP180;7950;42.744;23.174;2022-08-20T12:40:40;93760.34;;;31.17
15701;BMP180;7950;42.744;23.174;2022-08-20T12:43:09;93752.59;;;31.23
15701;BMP180;7950;42.744;23.174;2022-08-20T12:50:14;93758.91;;;30.99
15701;BMP180;7950;42.744;23.174;2022-08-20T12:52:44;93759.69;;;30.92
15701;BMP180;7950;42.744;23.174;2022-08-20T12:55:18;93761.25;;;30.86
15701;BMP180;7950;42.744;23.174;2022-08-20T12:57:50;93760.88;;;30.77
15701;BMP180;7950;42.744;23.174;2022-08-20T13:05:05;93754.19;;;31.10
15701;BMP180;7950;42.744;23.174;2022-08-20T13:16:37;93715.41;;;31.27
15701;BMP180;7950;42.744;23.174;2022-08-20T13:19:06;93721.66;;;31.13
15701;BMP180;7950;42.744;23.174;2022-08-20T13:21:35;93749.59;;;30.96
15701;BMP180;7950;42.744;23.174;2022-08-20T13:24:03;93786.41;;;30.83
15701;BMP180;7950;42.744;23.174;2022-08-20T13:36:08;93847.03;;;27.83
15701;BMP180;7950;42.744;23.174;2022-08-20T13:43:26;93853.56;;;27.16
15701;BMP180;7950;42.744;23.174;2022-08-20T13:45:55;93881.44;;;26.72
15701;BMP180;7950;42.744;23.174;2022-08-20T13:48:23;93920.16;;;26.41
15701;BMP180;7950;42.744;23.174;2022-08-20T13:56:07;93991.31;;;25.64
15701;BMP180;7950;42.744;23.174;2022-08-20T14:10:52;93964.63;;;22.63
15701;BMP180;7950;42.744;23.174;2022-08-20T14:13:23;93937.81;;;22.59
15701;BMP180;7950;42.744;23.174;2022-08-20T14:15:53;93929.00;;;22.59
15701;BMP180;7950;42.744;23.174;2022-08-20T14:18:23;93917.88;;;22.57
15701;BMP180;7950;42.744;23.174;2022-08-20T14:20:51;93908.53;;;22.51
15701;BMP180;7950;42.744;23.174;2022-08-20T15:55:07;93798.56;;;20.26
15701;BMP180;7950;42.744;23.174;2022-08-20T15:57:48;93789.34;;;20.24
15701;BMP180;7950;42.744;23.174;2022-08-20T16:00:24;93788.72;;;20.27
15701;BMP180;7950;42.744;23.174;2022-08-20T16:03:51;93777.34;;;20.38
15701;BMP180;7950;42.744;23.174;2022-08-20T16:06:26;93756.78;;;20.59
15701;BMP180;7950;42.744;23.174;2022-08-20T16:09:17;93741.94;;;20.70
15701;BMP180;7950;42.744;23.174;2022-08-20T16:11:59;93745.66;;;20.90
15701;BMP180;7950;42.744;23.174;2022-08-20T16:14:38;93739.06;;;21.08
15701;BMP180;7950;42.744;23.174;2022-08-20T16:17:13;93717.63;;;21.04
15701;BMP180;7950;42.744;23.174;2022-08-20T16:19:51;93725.59;;;20.92
15701;BMP180;7950;42.744;23.174;2022-08-20T16:22:26;93736.41;;;20.96
15701;BMP180;7950;42.744;23.174;2022-08-20T16:24:55;93744.00;;;21.18
15701;BMP180;7950;42.744;23.174;2022-08-20T16:27:35;93752.97;;;21.13
15701;BMP180;7950;42.744;23.174;2022-08-20T16:30:09;93771.09;;;21.20
15701;BMP180;7950;42.744;23.174;2022-08-20T16:32:45;93761.13;;;21.29
15701;BMP180;7950;42.744;23.174;2022-08-20T16:35:27;93752.69;;;21.27
15701;BMP180;7950;42.744;23.174;2022-08-20T16:38:08;93767.25;;;21.29
15701;BMP180;7950;42.744;23.174;2022-08-20T16:40:51;93783.25;;;21.53
15701;BMP180;7950;42.744;23.174;2022-08-20T16:43:28;93785.59;;;21.55
15701;BMP180;7950;42.744;23.174;2022-08-20T16:46:02;93791.16;;;21.50
15701;BMP180;7950;42.744;23.174;2022-08-20T16:48:43;93786.25;;;21.52
15701;BMP180;7950;42.744;23.174;2022-08-20T16:51:18;93793.81;;;21.62
15701;BMP180;7950;42.744;23.174;2022-08-20T16:53:49;93814.78;;;21.72
15701;BMP180;7950;42.744;23.174;2022-08-20T16:56:31;93828.53;;;21.62
15701;BMP180;7950;42.744;23.174;2022-08-20T16:59:09;93850.34;;;21.64
15701;BMP180;7950;42.744;23.174;2022-08-20T17:02:02;93866.53;;;21.47
15701;BMP180;7950;42.744;23.174;2022-08-20T17:04:44;93871.28;;;21.41
15701;BMP180;7950;42.744;23.174;2022-08-20T17:07:40;93885.38;;;21.30
15701;BMP180;7950;42.744;23.174;2022-08-20T17:10:18;93907.63;;;21.34
15701;BMP180;7950;42.744;23.174;2022-08-20T17:12:57;93923.41;;;21.27
15701;BMP180;7950;42.744;23.174;2022-08-20T17:15:31;93930.88;;;21.13
15701;BMP180;7950;42.744;23.174;2022-08-20T17:18:18;93945.28;;;21.20
15701;BMP180;7950;42.744;23.174;2022-08-20T17:20:47;93951.97;;;21.26
15701;BMP180;7950;42.744;23.174;2022-08-20T17:23:19;93961.09;;;21.37
15701;BMP180;7950;42.744;23.174;2022-08-20T17:25:58;93977.25;;;21.41
15701;BMP180;7950;42.744;23.174;2022-08-20T17:28:27;93990.47;;;21.37
15701;BMP180;7950;42.744;23.174;2022-08-20T17:31:02;94020.16;;;21.36
15701;BMP180;7950;42.744;23.174;2022-08-20T17:33:35;94030.13;;;21.27
15701;BMP180;7950;42.744;23.174;2022-08-20T17:36:09;94048.94;;;21.22
15701;BMP180;7950;42.744;23.174;2022-08-20T17:38:46;94055.00;;;21.10
15701;BMP180;7950;42.744;23.174;2022-08-20T17:41:21;94070.13;;;20.98
15701;BMP180;7950;42.744;23.174;2022-08-20T17:43:57;94082.88;;;20.84
15701;BMP180;7950;42.744;23.174;2022-08-20T17:46:32;94086.22;;;20.72
15701;BMP180;7950;42.744;23.174;2022-08-20T17:49:06;94090.31;;;20.70
15701;BMP180;7950;42.744;23.174;2022-08-20T17:51:47;94084.34;;;20.73
15701;BMP180;7950;42.744;23.174;2022-08-20T17:54:22;94103.47;;;20.75
15701;BMP180;7950;42.744;23.174;2022-08-20T17:56:58;94098.88;;;20.84
15701;BMP180;7950;42.744;23.174;2022-08-20T17:59:32;94093.38;;;20.89
15701;BMP180;7950;42.744;23.174;2022-08-20T18:02:24;94113.59;;;20.98
15701;BMP180;7950;42.744;23.174;2022-08-20T18:04:54;94112.66;;;20.86
15701;BMP180;7950;42.744;23.174;2022-08-20T18:07:25;94123.25;;;20.74
15701;BMP180;7950;42.744;23.174;2022-08-20T18:10:00;94122.50;;;20.56
15701;BMP180;7950;42.744;23.174;2022-08-20T18:12:35;94125.47;;;20.55
15701;BMP180;7950;42.744;23.174;2022-08-20T18:15:14;94143.03;;;20.56
15701;BMP180;7950;42.744;23.174;2022-08-20T18:18:16;94134.13;;;20.52
15701;BMP180;7950;42.744;23.174;2022-08-20T18:21:30;94147.31;;;20.31
15701;BMP180;7950;42.744;23.174;2022-08-20T18:24:05;94147.97;;;20.28
15701;BMP180;7950;42.744;23.174;2022-08-20T18:26:44;94174.13;;;20.01
15701;BMP180;7950;42.744;23.174;2022-08-20T18:29:20;94163.44;;;19.67
15701;BMP180;7950;42.744;23.174;2022-08-20T18:53:46;94187.84;;;19.04
15701;BMP180;7950;42.744;23.174;2022-08-20T18:56:37;94189.56;;;19.09
15701;BMP180;7950;42.744;23.174;2022-08-20T18:59:13;94200.75;;;19.28
15701;BMP180;7950;42.744;23.174;2022-08-20T19:01:47;94203.47;;;19.45
15701;BMP180;7950;42.744;23.174;2022-08-20T19:04:25;94200.50;;;19.46
15701;BMP180;7950;42.744;23.174;2022-08-20T19:06:59;94194.72;;;19.53
15701;BMP180;7950;42.744;23.174;2022-08-20T19:09:55;94184.25;;;19.56
15701;BMP180;7950;42.744;23.174;2022-08-20T19:13:07;94187.69;;;19.57
15701;BMP180;7950;42.744;23.174;2022-08-20T19:15:45;94188.63;;;19.61
15701;BMP180;7950;42.744;23.174;2022-08-20T19:18:25;94178.94;;;19.65
15701;BMP180;7950;42.744;23.174;2022-08-20T19:20:58;94177.22;;;19.69
15701;BMP180;7950;42.744;23.174;2022-08-20T19:23:36;94171.13;;;19.77
15701;BMP180;7950;42.744;23.174;2022-08-20T19:26:15;94175.19;;;19.83
15701;BMP180;7950;42.744;23.174;2022-08-20T19:28:56;94166.91;;;19.84
15701;BMP180;7950;42.744;23.174;2022-08-20T19:31:29;94166.13;;;19.92
15701;BMP180;7950;42.744;23.174;2022-08-20T19:34:02;94168.78;;;19.92
15701;BMP180;7950;42.744;23.174;2022-08-20T19:37:15;65556.66;;;-139.30
15701;BMP180;7950;42.744;23.174;2022-08-20T19:40:06;65556.66;;;-139.30
15701;BMP180;7950;42.744;23.174;2022-08-20T19:42:48;65556.66;;;-139.30
15701;BMP180;7950;42.744;23.174;2022-08-20T19:45:25;65556.66;;;-139.30
15701;BMP180;7950;42.744;23.174;2022-08-20T19:48:12;65556.66;;;-139.30
15701;BMP180;7950;42.744;23.174;2022-08-20T19:51:04;65556.66;;;-139.30
15701;BMP180;7950;42.744;23.174;2022-08-20T19:53:36;65556.66;;;-139.30
15701;BMP180;7950;42.744;23.174;2022-08-20T19:56:26;65556.66;;;-139.30
15701;BMP180;7950;42.744;23.174;2022-08-20T19:59:08;65556.66;;;-139.30
15701;BMP180;7950;42.744;23.174;2022-08-20T20:01:37;65556.66;;;-139.30
15701;BMP180;7950;42.744;23.174;2022-08-20T20:04:14;65556.66;;;-139.30
15701;BMP180;7950;42.744;23.174;2022-08-20T20:06:47;65556.66;;;-139.30
15701;BMP180;7950;42.744;23.174;2022-08-20T20:09:20;65556.66;;;-139.30
15701;BMP180;7950;42.744;23.174;2022-08-20T20:11:54;65556.66;;;-139.30
15701;BMP180;7950;42.744;23.174;2022-08-20T20:18:12;65556.66;;;-139.30
15701;BMP180;7950;42.744;23.174;2022-08-20T20:20:51;65556.66;;;-139.30
15701;BMP180;7950;42.744;23.174;2022-08-20T20:23:28;65556.66;;;-139.30
15701;BMP180;7950;42.744;23.174;2022-08-20T20:26:17;65556.66;;;-139.30
15701;BMP180;7950;42.744;23.174;2022-08-20T20:28:50;65556.66;;;-139.30
15701;BMP180;7950;42.744;23.174;2022-08-20T20:31:24;65556.66;;;-139.30
15701;BMP180;7950;42.744;23.174;2022-08-20T20:33:57;65556.66;;;-139.30
15701;BMP180;7950;42.744;23.174;2022-08-20T20:36:36;65556.66;;;-139.30
15701;BMP180;7950;42.744;23.174;2022-08-20T20:39:08;65556.66;;;-139.30
15701;BMP180;7950;42.744;23.174;2022-08-20T20:41:50;65556.66;;;-139.30
15701;BMP180;7950;42.744;23.174;2022-08-20T20:44:23;65556.66;;;-139.30
15701;BMP180;7950;42.744;23.174;2022-08-20T20:46:56;65556.66;;;-139.30
15701;BMP180;7950;42.744;23.174;2022-08-20T20:49:30;65556.66;;;-139.30
15701;BMP180;7950;42.744;23.174;2022-08-20T20:52:03;65556.66;;;-139.30
15701;BMP180;7950;42.744;23.174;2022-08-20T20:54:44;65556.66;;;-139.30
15701;BMP180;7950;42.744;23.174;2022-08-20T20:57:24;65556.66;;;-139.30
15701;BMP180;7950;42.744;23.174;2022-08-20T21:00:09;65556.66;;;-139.30
15701;BMP180;7950;42.744;23.174;2022-08-20T21:02:40;65556.66;;;-139.30
15701;BMP180;7950;42.744;23.174;2022-08-20T21:05:12;65556.66;;;-139.30
15701;BMP180;7950;42.744;23.174;2022-08-20T21:07:49;65556.66;;;-139.30
15701;BMP180;7950;42.744;23.174;2022-08-20T21:10:20;65556.66;;;-139.30
15701;BMP180;7950;42.744;23.174;2022-08-20T21:12:50;65556.66;;;-139.30
15701;BMP180;7950;42.744;23.174;2022-08-20T21:15:22;65556.66;;;-139.30
15701;BMP180;7950;42.744;23.174;2022-08-20T21:17:52;65556.66;;;-139.30
15701;BMP180;7950;42.744;23.174;2022-08-20T21:20:24;65556.66;;;-139.30
15701;BMP180;7950;42.744;23.174;2022-08-20T21:22:53;65556.66;;;-139.30
15701;BMP180;7950;42.744;23.174;2022-08-20T21:25:25;65556.66;;;-139.30
15701;BMP180;7950;42.744;23.174;2022-08-20T21:27:54;65556.66;;;-139.30
15701;BMP180;7950;42.744;23.174;2022-08-20T21:30:24;65556.66;;;-139.30
15701;BMP180;7950;42.744;23.174;2022-08-20T21:32:53;65556.66;;;-139.30
15701;BMP180;7950;42.744;23.174;2022-08-20T21:35:24;65556.66;;;-139.30
15701;BMP180;7950;42.744;23.174;2022-08-20T21:37:53;65556.66;;;-139.30
15701;BMP180;7950;42.744;23.174;2022-08-20T21:40:21;65556.66;;;-139.30
15701;BMP180;7950;42.744;23.174;2022-08-20T21:42:55;65556.66;;;-139.30
15701;BMP180;7950;42.744;23.174;2022-08-20T21:45:24;65556.66;;;-139.30
15701;BMP180;7950;42.744;23.174;2022-08-20T21:47:55;65556.66;;;-139.30
15701;BMP180;7950;42.744;23.174;2022-08-20T21:50:26;65556.66;;;-139.30
15701;BMP180;7950;42.744;23.174;2022-08-20T21:52:55;65556.66;;;-139.30
15701;BMP180;7950;42.744;23.174;2022-08-20T21:55:28;65556.66;;;-139.30
15701;BMP180;7950;42.744;23.174;2022-08-20T21:58:06;65556.66;;;-139.30
15701;BMP180;7950;42.744;23.174;2022-08-20T22:00:53;65556.66;;;-139.30
15701;BMP180;7950;42.744;23.174;2022-08-20T22:03:26;65556.66;;;-139.30
15701;BMP180;7950;42.744;23.174;2022-08-20T22:06:00;65556.66;;;-139.30
15701;BMP180;7950;42.744;23.174;2022-08-20T22:08:29;65556.66;;;-139.30
15701;BMP180;7950;42.744;23.174;2022-08-20T22:10:59;65556.66;;;-139.30
15701;BMP180;7950;42.744;23.174;2022-08-20T22:13:30;65556.66;;;-139.30
15701;BMP180;7950;42.744;23.174;2022-08-20T22:16:01;65556.66;;;-139.30
15701;BMP180;7950;42.744;23.174;2022-08-20T22:18:31;65556.66;;;-139.30
15701;BMP180;7950;42.744;23.174;2022-08-20T22:21:02;65556.66;;;-139.30
15701;BMP180;7950;42.744;23.174;2022-08-20T22:23:33;65556.66;;;-139.30
15701;BMP180;7950;42.744;23.174;2022-08-20T22:26:02;65556.66;;;-139.30
15701;BMP180;7950;42.744;23.174;2022-08-20T22:28:31;65556.66;;;-139.30
15701;BMP180;7950;42.744;23.174;2022-08-20T22:31:00;65556.66;;;-139.30
15701;BMP180;7950;42.744;23.174;2022-08-20T22:33:30;65556.66;;;-139.30
15701;BMP180;7950;42.744;23.174;2022-08-20T22:36:03;65556.66;;;-139.30
15701;BMP180;7950;42.744;23.174;2022-08-20T22:38:33;65556.66;;;-139.30
15701;BMP180;7950;42.744;23.174;2022-08-20T22:41:02;65556.66;;;-139.30
15701;BMP180;7950;42.744;23.174;2022-08-20T22:43:35;65556.66;;;-139.30
15701;BMP180;7950;42.744;23.174;2022-08-20T22:46:25;65556.66;;;-139.30
15701;BMP180;7950;42.744;23.174;2022-08-20T22:48:55;65556.66;;;-139.30
15701;BMP180;7950;42.744;23.174;2022-08-20T22:51:30;65556.66;;;-139.30
15701;BMP180;7950;42.744;23.174;2022-08-20T22:54:03;65556.66;;;-139.30
15701;BMP180;7950;42.744;23.174;2022-08-20T22:56:33;65556.66;;;-139.30
15701;BMP180;7950;42.744;23.174;2022-08-20T22:59:03;65556.66;;;-139.30
15701;BMP180;7950;42.744;23.174;2022-08-20T23:01:33;65556.66;;;-139.30
15701;BMP180;7950;42.744;23.174;2022-08-20T23:04:14;65556.66;;;-139.30
15701;BMP180;7950;42.744;23.174;2022-08-20T23:06:46;65556.66;;;-139.30
15701;BMP180;7950;42.744;23.174;2022-08-20T23:09:14;65556.66;;;-139.30
15701;BMP180;7950;42.744;23.174;2022-08-20T23:11:47;65556.66;;;-139.30
15701;BMP180;7950;42.744;23.174;2022-08-20T23:14:16;65556.66;;;-139.30
15701;BMP180;7950;42.744;23.174;2022-08-20T23:21:36;65556.66;;;-139.30
15701;BMP180;7950;42.744;23.174;2022-08-20T23:28:38;65556.66;;;-139.30
15701;BMP180;7950;42.744;23.174;2022-08-20T23:31:07;65556.66;;;-139.30
15701;BMP180;7950;42.744;23.174;2022-08-20T23:42:25;65556.66;;;-139.30
15701;BMP180;7950;42.744;23.174;2022-08-20T23:49:27;65556.66;;;-139.30
15701;BMP180;7950;42.744;23.174;2022-08-20T23:51:56;65556.66;;;-139.30
15701;BMP180;7950;42.744;23.174;2022-08-20T23:54:27;65556.66;;;-139.30
15701;BMP180;7950;42.744;23.174;2022-08-20T23:56:55;65556.66;;;-139.30
